KSHD/SHD METAR and TAF weather

Enter ICAO airport designator
Station Type Date Time Source
KSHD METAR 2019/05/25 15:50 UTC NOAA

KSHD 251550Z AUTO 19006KT 10SM SCT035 28/19 A3019 RMK AO2 T02810191


Station Type Date Time Source
KSHD Decoded METAR 2019/05/25 15:50 UTC NOAA

Staunton / Shenandoah, VA, United States (KSHD) 38-16N 078-54W
May 25, 2019 - 11:50 AM EDT / 2019.05.25 1550 UTC
Wind: from the S (190 degrees) at 7 MPH (6 KT):0
Visibility: 10 mile(s):0
Sky conditions: partly cloudy
Temperature: 82.6 F (28.1 C)
Dew Point: 66.4 F (19.1 C)
Relative Humidity: 58%
Pressure (altimeter): 30.19 in. Hg (1022 hPa)
ob: KSHD 251550Z AUTO 19006KT 10SM SCT035 28/19 A3019 RMK AO2 T02810191
cycle: 16

Station Type Date Time Source
KSHD TAF UTC NOAA

Error!

Example: see airport list